Alberta, Alabama
Current Conditions -  °F | °C
As of 4:55 PM on Wednesday 22 Oct 2014 (Local Time) from KSEM Reporting Station
Clear Clear  
Wind Chill: 72°   Ceiling: Unl
Heat Index: 72°   Visibility: 10mi
Dew Point: 37°   Wind: 12mph
Humidity: 29%   Direction: 10°N
Pressure: 30.07"   Gusts: NA
Location:  32.23°N, 87.41°W
Report Text: KSEM 222155Z AUTO 01010KT 10SM CLR 22/03 A3007 RMK AO2
Loading
Personal Weather Stations






























Interactive Weather Map
Tropical Storm Tracking
New forecast layout! Learn more

10-Day Weather Forecast

Advertisements
Track Severe Weather on mobile